sensor_id;sensor_type;location;lat;lon;timestamp;pressure;altitude;pressure_sealevel;temperature;humidity
23433;BME280;41331;45.412;10.992;2023-04-19T00:02:12;101050.22;;;15.27;60.28
23433;BME280;41331;45.412;10.992;2023-04-19T00:04:39;101047.47;;;15.15;60.56
23433;BME280;41331;45.412;10.992;2023-04-19T00:07:07;101050.78;;;15.20;61.27
23433;BME280;41331;45.412;10.992;2023-04-19T00:09:34;101044.72;;;15.27;60.73
23433;BME280;41331;45.412;10.992;2023-04-19T00:12:02;101043.59;;;15.28;60.37
23433;BME280;41331;45.412;10.992;2023-04-19T00:14:29;101037.31;;;15.27;60.30
23433;BME280;41331;45.412;10.992;2023-04-19T00:16:56;101040.84;;;15.28;61.09
23433;BME280;41331;45.412;10.992;2023-04-19T00:19:23;101034.44;;;15.24;60.86
23433;BME280;41331;45.412;10.992;2023-04-19T00:21:50;101032.13;;;15.26;60.59
23433;BME280;41331;45.412;10.992;2023-04-19T00:24:17;101039.34;;;15.31;61.29
23433;BME280;41331;45.412;10.992;2023-04-19T00:26:44;101033.75;;;15.27;60.82
23433;BME280;41331;45.412;10.992;2023-04-19T00:29:11;101031.81;;;15.27;60.67
23433;BME280;41331;45.412;10.992;2023-04-19T00:31:38;101031.56;;;15.33;61.03
23433;BME280;41331;45.412;10.992;2023-04-19T00:34:06;101029.75;;;15.37;59.63
23433;BME280;41331;45.412;10.992;2023-04-19T00:36:33;101029.75;;;15.37;60.74
23433;BME280;41331;45.412;10.992;2023-04-19T00:39:00;101021.97;;;15.39;60.55
23433;BME280;41331;45.412;10.992;2023-04-19T00:41:27;101029.75;;;15.37;60.42
23433;BME280;41331;45.412;10.992;2023-04-19T00:43:54;101031.09;;;15.31;60.91
23433;BME280;41331;45.412;10.992;2023-04-19T00:46:21;101025.63;;;15.43;60.97
23433;BME280;41331;45.412;10.992;2023-04-19T00:48:49;101018.28;;;15.47;60.79
23433;BME280;41331;45.412;10.992;2023-04-19T00:51:16;101012.81;;;15.47;61.13
23433;BME280;41331;45.412;10.992;2023-04-19T00:53:44;101018.19;;;15.43;61.08
23433;BME280;41331;45.412;10.992;2023-04-19T00:56:11;101010.38;;;15.45;60.89
23433;BME280;41331;45.412;10.992;2023-04-19T00:58:39;101007.66;;;15.45;60.47
23433;BME280;41331;45.412;10.992;2023-04-19T01:01:06;101014.25;;;15.57;60.52
23433;BME280;41331;45.412;10.992;2023-04-19T01:03:34;101003.63;;;15.55;60.17
23433;BME280;41331;45.412;10.992;2023-04-19T01:06:02;101005.78;;;15.62;60.26
23433;BME280;41331;45.412;10.992;2023-04-19T01:08:30;101000.44;;;15.53;60.31
23433;BME280;41331;45.412;10.992;2023-04-19T01:10:57;101004.22;;;15.48;60.88
23433;BME280;41331;45.412;10.992;2023-04-19T01:13:24;101003.06;;;15.49;61.01
23433;BME280;41331;45.412;10.992;2023-04-19T01:15:51;101003.63;;;15.55;60.49
23433;BME280;41331;45.412;10.992;2023-04-19T01:18:19;101000.56;;;15.57;60.95
23433;BME280;41331;45.412;10.992;2023-04-19T01:20:47;101002.13;;;15.58;60.77
23433;BME280;41331;45.412;10.992;2023-04-19T01:23:14;100996.66;;;15.58;61.03
23433;BME280;41331;45.412;10.992;2023-04-19T01:25:42;100996.41;;;15.63;60.79
23433;BME280;41331;45.412;10.992;2023-04-19T01:28:09;100994.81;;;15.62;60.62
23433;BME280;41331;45.412;10.992;2023-04-19T01:30:37;100992.31;;;15.57;60.79
23433;BME280;41331;45.412;10.992;2023-04-19T01:33:04;100994.00;;;15.61;60.42
23433;BME280;41331;45.412;10.992;2023-04-19T01:35:31;100999.41;;;15.58;60.40
23433;BME280;41331;45.412;10.992;2023-04-19T01:37:58;100989.56;;;15.57;60.91
23433;BME280;41331;45.412;10.992;2023-04-19T01:40:25;100982.13;;;15.57;61.03
23433;BME280;41331;45.412;10.992;2023-04-19T01:42:53;100984.78;;;15.53;60.96
23433;BME280;41331;45.412;10.992;2023-04-19T01:45:20;100980.88;;;15.54;61.12
23433;BME280;41331;45.412;10.992;2023-04-19T01:47:50;100988.19;;;15.50;61.69
23433;BME280;41331;45.412;10.992;2023-04-19T01:50:17;100986.00;;;15.56;61.99
23433;BME280;41331;45.412;10.992;2023-04-19T01:52:44;100986.25;;;15.51;61.79
23433;BME280;41331;45.412;10.992;2023-04-19T01:55:11;100986.00;;;15.56;61.56
23433;BME280;41331;45.412;10.992;2023-04-19T01:57:39;100983.25;;;15.56;60.97
23433;BME280;41331;45.412;10.992;2023-04-19T02:00:06;100976.66;;;15.57;60.92
23433;BME280;41331;45.412;10.992;2023-04-19T02:02:40;100979.47;;;15.61;60.92
23433;BME280;41331;45.412;10.992;2023-04-19T02:05:08;100977.34;;;15.54;61.61
23433;BME280;41331;45.412;10.992;2023-04-19T02:07:35;100977.66;;;15.65;59.98
23433;BME280;41331;45.412;10.992;2023-04-19T02:10:02;100978.84;;;15.51;61.70
23433;BME280;41331;45.412;10.992;2023-04-19T02:12:29;100982.28;;;15.48;61.88
23433;BME280;41331;45.412;10.992;2023-04-19T02:14:57;100984.66;;;15.50;62.12
23433;BME280;41331;45.412;10.992;2023-04-19T02:17:33;100981.13;;;15.49;61.86
23433;BME280;41331;45.412;10.992;2023-04-19T02:20:01;100983.06;;;15.49;61.93
23433;BME280;41331;45.412;10.992;2023-04-19T02:22:30;100985.03;;;15.48;61.68
23433;BME280;41331;45.412;10.992;2023-04-19T02:24:57;100981.84;;;15.46;61.09
23433;BME280;41331;45.412;10.992;2023-04-19T02:27:28;100976.69;;;15.45;61.17
23433;BME280;41331;45.412;10.992;2023-04-19T02:29:55;100974.66;;;15.42;62.14
23433;BME280;41331;45.412;10.992;2023-04-19T02:32:23;100977.47;;;15.45;62.63
23433;BME280;41331;45.412;10.992;2023-04-19T02:34:50;100975.53;;;15.46;62.80
23433;BME280;41331;45.412;10.992;2023-04-19T02:37:17;100975.09;;;15.44;62.37
23433;BME280;41331;45.412;10.992;2023-04-19T02:39:44;100971.44;;;15.40;62.38
23433;BME280;41331;45.412;10.992;2023-04-19T02:42:12;100968.81;;;15.31;62.65
23433;BME280;41331;45.412;10.992;2023-04-19T02:44:39;100968.81;;;15.31;62.79
23433;BME280;41331;45.412;10.992;2023-04-19T02:47:06;100969.41;;;15.37;62.94
23433;BME280;41331;45.412;10.992;2023-04-19T02:49:34;100969.75;;;15.35;62.32
23433;BME280;41331;45.412;10.992;2023-04-19T02:52:04;100965.75;;;15.33;62.44
23433;BME280;41331;45.412;10.992;2023-04-19T02:54:32;100966.69;;;15.24;63.15
23433;BME280;41331;45.412;10.992;2023-04-19T02:56:59;100965.53;;;15.25;62.75
23433;BME280;41331;45.412;10.992;2023-04-19T02:59:27;100966.25;;;15.22;63.15
23433;BME280;41331;45.412;10.992;2023-04-19T03:01:57;100967.84;;;15.23;63.78
23433;BME280;41331;45.412;10.992;2023-04-19T03:04:24;100972.41;;;15.19;63.42
23433;BME280;41331;45.412;10.992;2023-04-19T03:06:51;100965.13;;;15.11;64.13
23433;BME280;41331;45.412;10.992;2023-04-19T03:09:19;100957.09;;;15.18;64.78
23433;BME280;41331;45.412;10.992;2023-04-19T03:11:46;100965.38;;;15.06;64.49
23433;BME280;41331;45.412;10.992;2023-04-19T03:14:13;100953.34;;;15.11;65.32
23433;BME280;41331;45.412;10.992;2023-04-19T03:16:40;100964.34;;;14.98;65.10
23433;BME280;41331;45.412;10.992;2023-04-19T03:19:09;100961.41;;;14.91;65.55
23433;BME280;41331;45.412;10.992;2023-04-19T03:21:45;100964.00;;;15.00;65.87
23433;BME280;41331;45.412;10.992;2023-04-19T03:24:12;100958.97;;;14.90;65.35
23433;BME280;41331;45.412;10.992;2023-04-19T03:26:46;100953.25;;;15.07;65.50
23433;BME280;41331;45.412;10.992;2023-04-19T03:29:14;100955.78;;;15.00;65.07
23433;BME280;41331;45.412;10.992;2023-04-19T03:31:48;100969.72;;;14.95;64.66
23433;BME280;41331;45.412;10.992;2023-04-19T03:34:16;100963.31;;;14.91;65.30
23433;BME280;41331;45.412;10.992;2023-04-19T03:36:46;100955.22;;;14.94;65.82
23433;BME280;41331;45.412;10.992;2023-04-19T03:39:13;100950.53;;;14.95;64.91
23433;BME280;41331;45.412;10.992;2023-04-19T03:41:42;100950.75;;;14.90;66.27
23433;BME280;41331;45.412;10.992;2023-04-19T03:44:20;100947.34;;;14.93;65.72
23433;BME280;41331;45.412;10.992;2023-04-19T03:46:47;100951.00;;;14.85;66.50
23433;BME280;41331;45.412;10.992;2023-04-19T03:49:18;100951.22;;;14.80;65.44
23433;BME280;41331;45.412;10.992;2023-04-19T03:51:51;100949.28;;;14.80;65.34
23433;BME280;41331;45.412;10.992;2023-04-19T03:54:18;100948.72;;;14.74;65.95
23433;BME280;41331;45.412;10.992;2023-04-19T03:56:46;100948.75;;;14.62;66.88
23433;BME280;41331;45.412;10.992;2023-04-19T03:59:13;100946.69;;;14.59;66.83
23433;BME280;41331;45.412;10.992;2023-04-19T04:01:41;100951.72;;;14.57;67.09
23433;BME280;41331;45.412;10.992;2023-04-19T04:04:09;100951.94;;;14.52;67.22
23433;BME280;41331;45.412;10.992;2023-04-19T04:06:38;100944.88;;;14.51;67.88
23433;BME280;41331;45.412;10.992;2023-04-19T04:09:06;100953.75;;;14.60;67.34
23433;BME280;41331;45.412;10.992;2023-04-19T04:11:33;100951.16;;;14.52;67.44
23433;BME280;41331;45.412;10.992;2023-04-19T04:14:01;100947.91;;;14.37;68.12
23433;BME280;41331;45.412;10.992;2023-04-19T04:16:31;100950.78;;;14.41;67.76
23433;BME280;41331;45.412;10.992;2023-04-19T04:18:58;100951.88;;;14.40;68.16
23433;BME280;41331;45.412;10.992;2023-04-19T04:21:28;100952.00;;;14.43;67.55
23433;BME280;41331;45.412;10.992;2023-04-19T04:23:59;100956.78;;;14.34;67.62
23433;BME280;41331;45.412;10.992;2023-04-19T04:26:39;100956.78;;;14.34;68.44
23433;BME280;41331;45.412;10.992;2023-04-19T04:29:17;100953.75;;;14.36;67.30
23433;BME280;41331;45.412;10.992;2023-04-19T04:31:45;100956.44;;;14.23;68.57
23433;BME280;41331;45.412;10.992;2023-04-19T04:34:14;100961.47;;;14.21;67.85
23433;BME280;41331;45.412;10.992;2023-04-19T04:36:49;100963.41;;;14.21;68.88
23433;BME280;41331;45.412;10.992;2023-04-19T04:39:18;100959.63;;;14.13;69.84
23433;BME280;41331;45.412;10.992;2023-04-19T04:41:46;100963.50;;;14.12;70.24
23433;BME280;41331;45.412;10.992;2023-04-19T04:44:13;100961.22;;;14.14;70.24
23433;BME280;41331;45.412;10.992;2023-04-19T04:46:43;100962.84;;;14.28;68.45
23433;BME280;41331;45.412;10.992;2023-04-19T04:49:13;100965.66;;;14.19;68.14
23433;BME280;41331;45.412;10.992;2023-04-19T04:51:41;100960.41;;;14.02;68.54
23433;BME280;41331;45.412;10.992;2023-04-19T04:54:09;100961.66;;;14.04;68.93
23433;BME280;41331;45.412;10.992;2023-04-19T04:56:36;100969.41;;;14.14;68.38
23433;BME280;41331;45.412;10.992;2023-04-19T04:59:04;100976.94;;;14.05;69.01
23433;BME280;41331;45.412;10.992;2023-04-19T05:01:35;100965.75;;;13.98;70.30
23433;BME280;41331;45.412;10.992;2023-04-19T05:04:03;100968.84;;;13.96;71.12
23433;BME280;41331;45.412;10.992;2023-04-19T05:06:32;100972.81;;;13.99;70.72
23433;BME280;41331;45.412;10.992;2023-04-19T05:08:59;100970.97;;;13.91;70.46
23433;BME280;41331;45.412;10.992;2023-04-19T05:11:32;100964.16;;;14.09;70.25
23433;BME280;41331;45.412;10.992;2023-04-19T05:13:59;100959.16;;;14.11;69.79
23433;BME280;41331;45.412;10.992;2023-04-19T05:16:27;100974.69;;;14.19;70.19
23433;BME280;41331;45.412;10.992;2023-04-19T05:18:54;100966.03;;;14.30;69.87
23433;BME280;41331;45.412;10.992;2023-04-19T05:21:23;100970.03;;;14.32;69.82
23433;BME280;41331;45.412;10.992;2023-04-19T05:23:50;100968.66;;;14.38;69.58
23433;BME280;41331;45.412;10.992;2023-04-19T05:26:20;100967.28;;;14.44;68.68
23433;BME280;41331;45.412;10.992;2023-04-19T05:28:48;100968.38;;;14.52;68.36
23433;BME280;41331;45.412;10.992;2023-04-19T05:31:21;100966.78;;;14.51;68.71
23433;BME280;41331;45.412;10.992;2023-04-19T05:34:21;100964.38;;;14.62;68.76
23433;BME280;41331;45.412;10.992;2023-04-19T05:36:49;100965.63;;;14.64;67.82
23433;BME280;41331;45.412;10.992;2023-04-19T05:39:16;100960.03;;;14.61;67.82
23433;BME280;41331;45.412;10.992;2023-04-19T05:41:43;100968.59;;;14.59;67.52
23433;BME280;41331;45.412;10.992;2023-04-19T05:44:10;100965.06;;;14.71;68.03
23433;BME280;41331;45.412;10.992;2023-04-19T05:46:38;100961.03;;;14.81;69.03
23433;BME280;41331;45.412;10.992;2023-04-19T05:49:08;100965.03;;;14.95;67.68
23433;BME280;41331;45.412;10.992;2023-04-19T05:51:40;100970.50;;;14.95;67.29
23433;BME280;41331;45.412;10.992;2023-04-19T05:54:14;100974.72;;;15.17;68.26
23433;BME280;41331;45.412;10.992;2023-04-19T05:56:45;100976.66;;;15.17;67.71
23433;BME280;41331;45.412;10.992;2023-04-19T05:59:13;100974.72;;;15.17;67.02
23433;BME280;41331;45.412;10.992;2023-04-19T06:01:41;100962.94;;;15.17;66.88
23433;BME280;41331;45.412;10.992;2023-04-19T06:04:08;100975.19;;;15.07;67.57
23433;BME280;41331;45.412;10.992;2023-04-19T06:06:36;100972.94;;;15.37;67.77
23433;BME280;41331;45.412;10.992;2023-04-19T06:09:04;100965.63;;;15.41;68.34
23433;BME280;41331;45.412;10.992;2023-04-19T06:11:33;100968.75;;;15.68;68.25
23433;BME280;41331;45.412;10.992;2023-04-19T06:14:13;100964.28;;;15.91;69.75
23433;BME280;41331;45.412;10.992;2023-04-19T06:16:41;100964.84;;;16.13;68.19
23433;BME280;41331;45.412;10.992;2023-04-19T06:19:08;100960.31;;;16.36;67.05
23433;BME280;41331;45.412;10.992;2023-04-19T06:21:35;100960.75;;;16.70;62.81
23433;BME280;41331;45.412;10.992;2023-04-19T06:24:02;100956.84;;;16.87;58.42
23433;BME280;41331;45.412;10.992;2023-04-19T06:26:29;100963.81;;;17.00;58.15
23433;BME280;41331;45.412;10.992;2023-04-19T06:28:57;100959.88;;;17.17;57.74
23433;BME280;41331;45.412;10.992;2023-04-19T06:31:24;100964.25;;;17.37;56.81
23433;BME280;41331;45.412;10.992;2023-04-19T06:33:51;100956.63;;;17.50;57.34
23433;BME280;41331;45.412;10.992;2023-04-19T06:36:18;100958.03;;;18.02;53.27
23433;BME280;41331;45.412;10.992;2023-04-19T06:38:45;100946.31;;;18.28;53.45
23433;BME280;41331;45.412;10.992;2023-04-19T06:41:12;100955.22;;;18.21;53.67
23433;BME280;41331;45.412;10.992;2023-04-19T06:43:40;100950.28;;;18.53;53.02
23433;BME280;41331;45.412;10.992;2023-04-19T06:46:08;100948.44;;;19.18;52.23
23433;BME280;41331;45.412;10.992;2023-04-19T06:48:36;100947.84;;;19.01;50.43
23433;BME280;41331;45.412;10.992;2023-04-19T06:51:04;100951.69;;;19.57;48.01
23433;BME280;41331;45.412;10.992;2023-04-19T06:53:31;100957.19;;;18.93;50.02
23433;BME280;41331;45.412;10.992;2023-04-19T06:55:58;100952.31;;;18.83;50.69
23433;BME280;41331;45.412;10.992;2023-04-19T06:58:30;100957.44;;;18.58;50.35
23433;BME280;41331;45.412;10.992;2023-04-19T07:01:02;100958.47;;;18.50;50.72
23433;BME280;41331;45.412;10.992;2023-04-19T07:03:29;100959.53;;;18.19;52.29
23433;BME280;41331;45.412;10.992;2023-04-19T07:05:57;100963.44;;;17.95;51.77
23433;BME280;41331;45.412;10.992;2023-04-19T07:08:25;100957.44;;;17.89;52.42
23433;BME280;41331;45.412;10.992;2023-04-19T07:11:01;100963.00;;;18.16;52.06
23433;BME280;41331;45.412;10.992;2023-04-19T07:13:28;100958.91;;;18.29;53.01
23433;BME280;41331;45.412;10.992;2023-04-19T07:15:55;100957.94;;;18.67;52.23
23433;BME280;41331;45.412;10.992;2023-04-19T07:18:22;100955.66;;;18.69;52.62
23433;BME280;41331;45.412;10.992;2023-04-19T07:20:49;100960.53;;;18.79;53.79
23433;BME280;41331;45.412;10.992;2023-04-19T07:23:16;100962.47;;;19.05;52.70
23433;BME280;41331;45.412;10.992;2023-04-19T07:25:44;100953.63;;;19.86;49.88
23433;BME280;41331;45.412;10.992;2023-04-19T07:28:11;100951.16;;;20.15;50.10
23433;BME280;41331;45.412;10.992;2023-04-19T07:30:38;100950.28;;;20.07;49.92
23433;BME280;41331;45.412;10.992;2023-04-19T07:33:05;100948.69;;;20.06;52.15
23433;BME280;41331;45.412;10.992;2023-04-19T07:35:34;100953.47;;;20.09;47.11
23433;BME280;41331;45.412;10.992;2023-04-19T07:38:04;100947.03;;;19.31;50.59
23433;BME280;41331;45.412;10.992;2023-04-19T07:40:31;100948.94;;;18.97;52.04
23433;BME280;41331;45.412;10.992;2023-04-19T07:42:58;100951.03;;;18.77;53.47
23433;BME280;41331;45.412;10.992;2023-04-19T07:45:25;100953.59;;;18.66;54.14
23433;BME280;41331;45.412;10.992;2023-04-19T07:47:52;100941.53;;;18.48;53.69
23433;BME280;41331;45.412;10.992;2023-04-19T07:50:19;100949.41;;;18.49;52.49
23433;BME280;41331;45.412;10.992;2023-04-19T07:52:49;100942.72;;;18.50;52.86
23433;BME280;41331;45.412;10.992;2023-04-19T07:55:16;100944.94;;;18.41;53.19
23433;BME280;41331;45.412;10.992;2023-04-19T07:57:43;100943.91;;;18.49;54.06
23433;BME280;41331;45.412;10.992;2023-04-19T08:00:14;100952.34;;;18.37;53.69
23433;BME280;41331;45.412;10.992;2023-04-19T08:02:42;100947.34;;;18.20;52.33
23433;BME280;41331;45.412;10.992;2023-04-19T08:05:11;100949.72;;;18.21;52.95
23433;BME280;41331;45.412;10.992;2023-04-19T08:07:39;100945.63;;;18.34;52.72
23433;BME280;41331;45.412;10.992;2023-04-19T08:10:06;100952.91;;;18.69;50.51
23433;BME280;41331;45.412;10.992;2023-04-19T08:12:34;100950.06;;;18.66;52.25
23433;BME280;41331;45.412;10.992;2023-04-19T08:15:13;100945.56;;;18.80;51.53
23433;BME280;41331;45.412;10.992;2023-04-19T08:18:00;100941.72;;;18.85;49.04
23433;BME280;41331;45.412;10.992;2023-04-19T08:20:31;100937.97;;;19.30;49.78
23433;BME280;41331;45.412;10.992;2023-04-19T08:22:58;100937.72;;;19.42;51.53
23433;BME280;41331;45.412;10.992;2023-04-19T08:25:36;100931.81;;;19.74;50.60
23433;BME280;41331;45.412;10.992;2023-04-19T08:28:04;100927.91;;;20.20;46.76
23433;BME280;41331;45.412;10.992;2023-04-19T08:30:31;100929.13;;;20.26;48.85
23433;BME280;41331;45.412;10.992;2023-04-19T08:32:58;100929.53;;;20.76;47.83
23433;BME280;41331;45.412;10.992;2023-04-19T08:35:25;100930.72;;;20.75;47.51
23433;BME280;41331;45.412;10.992;2023-04-19T08:37:53;100926.63;;;20.58;49.32
23433;BME280;41331;45.412;10.992;2023-04-19T08:40:20;100921.59;;;20.71;46.90
23433;BME280;41331;45.412;10.992;2023-04-19T08:42:47;100918.13;;;21.93;46.00
23433;BME280;41331;45.412;10.992;2023-04-19T08:45:15;100913.03;;;22.41;44.78
23433;BME280;41331;45.412;10.992;2023-04-19T08:47:55;100910.66;;;22.40;44.18
23433;BME280;41331;45.412;10.992;2023-04-19T08:50:28;100905.63;;;23.40;43.03
23433;BME280;41331;45.412;10.992;2023-04-19T08:52:59;100902.25;;;22.68;42.81
23433;BME280;41331;45.412;10.992;2023-04-19T08:55:47;100910.22;;;22.09;41.89
23433;BME280;41331;45.412;10.992;2023-04-19T08:58:18;100906.19;;;21.67;42.86
23433;BME280;41331;45.412;10.992;2023-04-19T09:01:03;100906.63;;;21.87;43.86
23433;BME280;41331;45.412;10.992;2023-04-19T09:03:31;100903.00;;;21.51;43.54
23433;BME280;41331;45.412;10.992;2023-04-19T09:06:13;100903.34;;;21.35;44.89
23433;BME280;41331;45.412;10.992;2023-04-19T09:08:40;100901.38;;;21.43;45.55
23433;BME280;41331;45.412;10.992;2023-04-19T09:11:07;100895.88;;;21.39;44.90
23433;BME280;41331;45.412;10.992;2023-04-19T09:13:35;100895.72;;;21.11;44.93
23433;BME280;41331;45.412;10.992;2023-04-19T09:16:21;100896.63;;;21.36;44.87
23433;BME280;41331;45.412;10.992;2023-04-19T09:18:55;100886.25;;;21.15;43.78
23433;BME280;41331;45.412;10.992;2023-04-19T09:21:41;100893.72;;;21.08;45.64
23433;BME280;41331;45.412;10.992;2023-04-19T09:24:08;100883.00;;;20.95;46.84
23433;BME280;41331;45.412;10.992;2023-04-19T09:26:36;100878.84;;;21.34;44.58
23433;BME280;41331;45.412;10.992;2023-04-19T09:29:04;100871.31;;;21.34;44.67
23433;BME280;41331;45.412;10.992;2023-04-19T09:31:34;100875.53;;;21.07;47.18
23433;BME280;41331;45.412;10.992;2023-04-19T09:34:17;100872.44;;;21.26;44.94
23433;BME280;41331;45.412;10.992;2023-04-19T09:36:45;100876.28;;;20.97;46.22
23433;BME280;41331;45.412;10.992;2023-04-19T09:39:12;100863.03;;;20.58;46.89
23433;BME280;41331;45.412;10.992;2023-04-19T09:41:50;100864.00;;;20.90;46.48
23433;BME280;41331;45.412;10.992;2023-04-19T09:44:19;100865.94;;;20.83;46.02
23433;BME280;41331;45.412;10.992;2023-04-19T09:46:49;100856.09;;;20.92;47.74
23433;BME280;41331;45.412;10.992;2023-04-19T09:49:23;100851.75;;;20.91;47.08
23433;BME280;41331;45.412;10.992;2023-04-19T09:52:10;100842.78;;;21.19;47.23
23433;BME280;41331;45.412;10.992;2023-04-19T09:54:39;100838.09;;;21.49;44.19
23433;BME280;41331;45.412;10.992;2023-04-19T09:57:07;100839.72;;;21.50;44.00
23433;BME280;41331;45.412;10.992;2023-04-19T09:59:36;100822.72;;;21.76;43.99
23433;BME280;41331;45.412;10.992;2023-04-19T10:02:03;100831.41;;;21.46;43.88
23433;BME280;41331;45.412;10.992;2023-04-19T10:04:31;100822.72;;;21.65;44.63
23433;BME280;41331;45.412;10.992;2023-04-19T10:07:16;100819.16;;;22.04;44.89
23433;BME280;41331;45.412;10.992;2023-04-19T10:09:46;100815.19;;;22.02;44.22
23433;BME280;41331;45.412;10.992;2023-04-19T10:12:22;100814.00;;;22.31;44.01
23433;BME280;41331;45.412;10.992;2023-04-19T10:15:10;100803.72;;;22.21;43.45
23433;BME280;41331;45.412;10.992;2023-04-19T10:17:38;100804.22;;;23.11;42.54
23433;BME280;41331;45.412;10.992;2023-04-19T10:20:06;100799.03;;;23.20;40.60
23433;BME280;41331;45.412;10.992;2023-04-19T10:22:34;100789.69;;;23.51;41.48
23433;BME280;41331;45.412;10.992;2023-04-19T10:25:07;100789.16;;;23.71;39.56
23433;BME280;41331;45.412;10.992;2023-04-19T10:27:36;100782.25;;;23.90;41.10
23433;BME280;41331;45.412;10.992;2023-04-19T10:30:03;100790.03;;;24.06;39.56
23433;BME280;41331;45.412;10.992;2023-04-19T10:32:37;100783.53;;;23.22;40.38
23433;BME280;41331;45.412;10.992;2023-04-19T10:35:08;100777.56;;;23.24;40.60
23433;BME280;41331;45.412;10.992;2023-04-19T10:37:39;100772.22;;;22.88;40.62
23433;BME280;41331;45.412;10.992;2023-04-19T10:40:09;100759.91;;;23.52;41.81
23433;BME280;41331;45.412;10.992;2023-04-19T10:45:30;100758.94;;;23.76;42.94
23433;BME280;41331;45.412;10.992;2023-04-19T10:47:58;100753.41;;;23.17;44.65
23433;BME280;41331;45.412;10.992;2023-04-19T10:50:25;100752.06;;;23.40;42.34
23433;BME280;41331;45.412;10.992;2023-04-19T10:52:52;100750.91;;;23.37;41.09
23433;BME280;41331;45.412;10.992;2023-04-19T10:55:20;100742.66;;;23.26;40.09
23433;BME280;41331;45.412;10.992;2023-04-19T10:57:59;100739.19;;;23.64;39.88
23433;BME280;41331;45.412;10.992;2023-04-19T11:00:27;100729.97;;;23.74;39.48
23433;BME280;41331;45.412;10.992;2023-04-19T11:02:58;100726.31;;;23.36;40.32
23433;BME280;41331;45.412;10.992;2023-04-19T11:05:25;100718.72;;;23.88;40.77
23433;BME280;41331;45.412;10.992;2023-04-19T11:07:52;100714.38;;;23.39;38.83
23433;BME280;41331;45.412;10.992;2023-04-19T11:10:29;100704.97;;;23.74;39.58
23433;BME280;41331;45.412;10.992;2023-04-19T11:12:59;100704.50;;;23.79;40.29
23433;BME280;41331;45.412;10.992;2023-04-19T11:15:26;100695.91;;;24.04;40.76
23433;BME280;41331;45.412;10.992;2023-04-19T11:17:53;100690.78;;;24.02;39.46
23433;BME280;41331;45.412;10.992;2023-04-19T11:20:37;100687.84;;;23.79;39.04
23433;BME280;41331;45.412;10.992;2023-04-19T11:23:07;100687.59;;;23.59;38.80
23433;BME280;41331;45.412;10.992;2023-04-19T11:25:41;100681.63;;;23.64;38.65
23433;BME280;41331;45.412;10.992;2023-04-19T11:28:10;100671.63;;;22.70;39.58
23433;BME280;41331;45.412;10.992;2023-04-19T11:30:37;100671.88;;;22.02;42.37
23433;BME280;41331;45.412;10.992;2023-04-19T11:33:05;100675.09;;;21.90;41.87
23433;BME280;41331;45.412;10.992;2023-04-19T11:35:32;100659.47;;;22.46;41.29
23433;BME280;41331;45.412;10.992;2023-04-19T11:37:59;100659.63;;;23.39;41.06
23433;BME280;41331;45.412;10.992;2023-04-19T11:40:27;100660.00;;;23.41;41.24
23433;BME280;41331;45.412;10.992;2023-04-19T11:42:55;100654.34;;;23.52;37.97
23433;BME280;41331;45.412;10.992;2023-04-19T11:45:24;100643.38;;;23.79;36.85
23433;BME280;41331;45.412;10.992;2023-04-19T11:47:58;100648.78;;;23.93;38.62
23433;BME280;41331;45.412;10.992;2023-04-19T11:50:43;100632.72;;;24.42;36.21
23433;BME280;41331;45.412;10.992;2023-04-19T11:53:15;100636.09;;;24.57;37.02
23433;BME280;41331;45.412;10.992;2023-04-19T11:55:43;100634.25;;;24.74;38.27
23433;BME280;41331;45.412;10.992;2023-04-19T11:58:29;100629.28;;;24.62;36.90
23433;BME280;41331;45.412;10.992;2023-04-19T12:01:06;100625.81;;;25.04;36.58
23433;BME280;41331;45.412;10.992;2023-04-19T12:03:34;100623.66;;;24.65;35.27
23433;BME280;41331;45.412;10.992;2023-04-19T12:06:02;100614.13;;;24.63;36.75
23433;BME280;41331;45.412;10.992;2023-04-19T12:08:33;100610.16;;;24.64;37.61
23433;BME280;41331;45.412;10.992;2023-04-19T12:11:02;100608.53;;;25.17;37.03
23433;BME280;41331;45.412;10.992;2023-04-19T12:13:30;100609.19;;;24.74;36.98
23433;BME280;41331;45.412;10.992;2023-04-19T12:15:58;100613.72;;;23.69;37.19
23433;BME280;41331;45.412;10.992;2023-04-19T12:18:26;100606.34;;;23.10;38.59
23433;BME280;41331;45.412;10.992;2023-04-19T12:20:53;100598.28;;;22.71;39.22
23433;BME280;41331;45.412;10.992;2023-04-19T12:23:20;100602.16;;;22.21;40.79
23433;BME280;41331;45.412;10.992;2023-04-19T12:25:48;100592.88;;;22.49;41.28
23433;BME280;41331;45.412;10.992;2023-04-19T12:28:15;100590.94;;;23.43;38.95
23433;BME280;41331;45.412;10.992;2023-04-19T12:30:43;100594.78;;;23.57;38.58
23433;BME280;41331;45.412;10.992;2023-04-19T12:33:10;100592.56;;;23.78;37.38
23433;BME280;41331;45.412;10.992;2023-04-19T12:35:37;100587.31;;;24.18;36.77
23433;BME280;41331;45.412;10.992;2023-04-19T12:38:05;100584.22;;;24.43;36.54
23433;BME280;41331;45.412;10.992;2023-04-19T12:40:34;100582.44;;;24.57;36.19
23433;BME280;41331;45.412;10.992;2023-04-19T12:43:01;100576.09;;;24.56;36.13
23433;BME280;41331;45.412;10.992;2023-04-19T12:45:28;100569.22;;;24.37;37.28
23433;BME280;41331;45.412;10.992;2023-04-19T12:47:56;100577.44;;;24.44;36.41
23433;BME280;41331;45.412;10.992;2023-04-19T12:50:23;100568.16;;;24.24;36.85
23433;BME280;41331;45.412;10.992;2023-04-19T12:52:50;100565.16;;;24.42;37.22
23433;BME280;41331;45.412;10.992;2023-04-19T12:55:19;100566.31;;;23.83;37.43